Terminal Aerodrome Forecast
Issued by NWS

Home | Current Version | Previous Version | Text Only | Print | Product List | Glossary On
Versions: 1 2 3 4 5 6 7 8 9 10 11 12 13 14 15 16 17 18 19 20 21 22 23 24 25
000
FTUS41 KPHI 301509 AAA
TAFMIV
TAF AMD
KMIV 301509Z 3015/0112 16011G17KT P6SM SHRA SCT035 BKN050
      TEMPO 3022/0101 5SM TSRA BKN050CB
     FM010100 14005KT P6SM SHRA SCT035 BKN050
      TEMPO 0101/0104 5SM TSRA BR BKN035CB
     FM010500 14004KT 4SM -SHRA BR BKN035 OVC050
     FM010800 20004KT 4SM -SHRA BR BKN035 OVC050=

USA.gov is the U.S. government's official web portal to all federal, state and local government web resources and services.